Time;durP1;ratioP1;P1;durP2;ratioP2;P2;SDS_P1;SDS_P2;PMS_P1;PMS_P2;Temp;Humidity;BMP_temperature;BMP_pressure;BME280_temperature;BME280_humidity;BME280_pressure;Samples;Min_cycle;Max_cycle;Signal;HPM_P1;HPM_P2
2023/03/17 00:01:43;;;;;;;2.30;2.10;;;9.00;57.30;;;11.56;42.43;101001.94;5122689;27;20222;-56
2023/03/17 00:04:11;;;;;;;2.37;2.17;;;9.00;57.40;;;11.59;43.07;100990.22;5114586;28;20283;-56
2023/03/17 00:06:40;;;;;;;2.03;1.83;;;9.00;57.50;;;11.60;42.63;100983.94;5115766;28;20195;-55
2023/03/17 00:09:13;;;;;;;3.60;2.80;;;9.00;57.40;;;11.57;43.32;100986.94;5133602;27;20196;-56
2023/03/17 00:11:40;;;;;;;3.23;2.40;;;9.00;57.50;;;11.60;43.00;100986.56;5117039;27;20241;-56
2023/03/17 00:14:08;;;;;;;2.53;2.20;;;9.00;57.50;;;11.66;42.65;100991.16;5115766;28;20612;-56
2023/03/17 00:16:41;;;;;;;2.63;2.40;;;9.00;57.40;;;11.68;42.51;100993.63;5115705;28;20207;-55
2023/03/17 00:19:15;;;;;;;3.00;2.10;;;9.00;57.60;;;11.66;42.41;100985.88;5116568;28;20198;-56
2023/03/17 00:21:44;;;;;;;1.93;1.83;;;9.00;57.60;;;11.66;43.03;100991.16;5115757;28;20172;-56
2023/03/17 00:24:11;;;;;;;2.60;2.40;;;9.00;57.70;;;11.68;42.59;100988.34;5115605;28;20639;-56
2023/03/17 00:26:42;;;;;;;3.83;2.40;;;9.10;57.80;;;11.70;42.78;100989.00;5116008;28;20215;-56
2023/03/17 00:29:10;;;;;;;3.30;2.60;;;9.00;57.70;;;11.72;42.33;100985.19;5115720;28;20197;-54
2023/03/17 00:31:38;;;;;;;4.87;3.00;;;9.00;57.60;;;11.71;42.71;100991.47;5115603;28;20199;-55
2023/03/17 00:34:10;;;;;;;3.37;2.40;;;9.00;58.00;;;11.68;42.91;100989.19;5114549;27;20721;-57
2023/03/17 00:36:37;;;;;;;2.30;2.10;;;9.00;57.90;;;11.67;42.58;100992.78;5114919;28;20207;-56
2023/03/17 00:39:12;;;;;;;3.03;2.40;;;9.00;57.80;;;11.62;42.81;100991.69;5114724;28;20217;-55
2023/03/17 00:41:38;;;;;;;3.30;2.50;;;9.00;58.00;;;11.58;43.20;100993.81;5115336;28;20524;-57
2023/03/17 00:44:05;;;;;;;3.90;2.20;;;9.00;58.20;;;11.53;43.20;100996.16;5115028;28;20228;-55
2023/03/17 00:46:36;;;;;;;3.93;2.30;;;8.90;58.20;;;11.51;43.63;100990.25;5115423;28;20188;-56
2023/03/17 00:49:15;;;;;;;4.40;2.90;;;8.90;58.30;;;11.47;43.64;101002.97;5114333;28;20659;-55
2023/03/17 00:51:42;;;;;;;2.87;2.60;;;8.90;58.50;;;11.43;43.72;100995.59;5114729;28;20222;-56
2023/03/17 00:54:10;;;;;;;3.70;2.37;;;8.90;58.70;;;11.41;43.93;100987.84;5114058;28;20204;-57
2023/03/17 00:56:40;;;;;;;3.90;2.20;;;8.90;58.80;;;11.39;43.91;100981.09;5116651;28;20257;-55
2023/03/17 00:59:19;;;;;;;3.00;2.20;;;8.80;58.90;;;11.37;43.71;100977.81;5122448;28;20195;-58
2023/03/17 01:01:47;;;;;;;2.70;2.17;;;8.80;59.00;;;11.37;43.68;100962.00;5129613;27;20522;-57
2023/03/17 01:04:15;;;;;;;3.00;2.30;;;8.80;59.30;;;11.36;43.84;100961.19;5134399;27;20239;-56
2023/03/17 01:06:42;;;;;;;2.77;2.50;;;8.80;59.20;;;11.40;44.47;100959.03;5135635;27;20194;-54
2023/03/17 01:09:13;;;;;;;2.23;2.03;;;8.80;59.30;;;11.38;43.88;100966.28;5116103;27;20691;-57
2023/03/17 01:11:40;;;;;;;2.57;2.10;;;8.80;59.50;;;11.38;44.41;100950.47;5114189;28;20192;-57
2023/03/17 01:14:08;;;;;;;3.73;2.70;;;8.80;59.50;;;11.34;44.11;100957.06;5113779;28;20565;-58
2023/03/17 01:16:35;;;;;;;2.73;2.13;;;8.70;59.60;;;11.36;44.31;100953.28;5113964;28;20663;-56
2023/03/17 01:19:04;;;;;;;3.43;2.30;;;8.80;59.60;;;11.39;44.00;100965.28;5114322;28;20187;-57
2023/03/17 01:21:31;;;;;;;3.93;2.47;;;8.70;59.50;;;11.37;44.55;100959.38;5113967;28;20659;-56
2023/03/17 01:23:59;;;;;;;2.87;2.63;;;8.70;59.70;;;11.34;44.40;100962.34;5113954;28;20223;-57
2023/03/17 01:26:26;;;;;;;3.60;2.33;;;8.70;59.80;;;11.34;44.03;100964.97;5114302;28;20214;-57
2023/03/17 01:28:53;;;;;;;3.20;2.33;;;8.70;59.70;;;11.34;44.61;100957.91;5114049;28;20194;-57
2023/03/17 01:31:22;;;;;;;3.30;2.57;;;8.70;59.70;;;11.36;44.11;100947.22;5114133;28;20195;-56
2023/03/17 01:33:50;;;;;;;3.20;2.50;;;8.70;59.70;;;11.35;44.50;100945.56;5113585;28;20222;-55
2023/03/17 01:36:19;;;;;;;4.03;2.57;;;8.70;59.90;;;11.30;44.65;100948.72;5114040;28;20282;-57
2023/03/17 01:38:49;;;;;;;3.40;2.50;;;8.70;60.00;;;11.26;44.62;100951.88;5113988;28;20199;-57
2023/03/17 01:41:17;;;;;;;2.90;2.57;;;8.70;60.00;;;11.26;44.74;100947.44;5114064;28;20214;-58
2023/03/17 01:43:44;;;;;;;3.10;2.67;;;8.70;60.10;;;11.25;44.35;100939.69;5113473;28;20228;-56
2023/03/17 01:46:26;;;;;;;5.53;2.80;;;8.70;60.20;;;11.23;45.04;100939.03;5114270;28;20188;-57
2023/03/17 01:49:14;;;;;;;3.50;2.50;;;8.70;60.30;;;11.17;45.15;100942.38;5113887;28;20675;-54
2023/03/17 01:51:52;;;;;;;4.43;2.50;;;8.60;60.40;;;11.16;44.92;100960.00;5114348;28;20199;-57
2023/03/17 01:54:25;;;;;;;2.70;2.17;;;8.60;60.50;;;11.18;44.55;100959.81;5121574;28;20208;-57
2023/03/17 01:56:57;;;;;;;2.83;2.27;;;8.60;60.50;;;11.14;45.25;100935.66;5113389;28;20168;-55
2023/03/17 01:59:30;;;;;;;2.60;2.40;;;8.60;60.70;;;11.20;44.58;100942.00;5113554;28;20176;-57
2023/03/17 02:02:03;;;;;;;4.23;2.73;;;8.60;60.50;;;11.21;45.13;100941.03;5130325;28;20179;-58
2023/03/17 02:04:32;;;;;;;4.03;2.60;;;8.60;60.80;;;11.21;44.99;100943.66;5133871;28;20314;-57
2023/03/17 02:07:03;;;;;;;3.77;2.80;;;8.60;60.90;;;11.16;45.40;100951.25;5134985;27;20601;-56
2023/03/17 02:09:32;;;;;;;3.73;2.40;;;8.60;61.10;;;11.15;45.38;100949.63;5094339;28;20208;-56
2023/03/17 02:12:01;;;;;;;4.80;2.40;;;8.60;61.20;;;11.14;45.47;100934.81;5113627;28;20664;-58
2023/03/17 02:14:29;;;;;;;3.60;2.23;;;8.60;61.10;;;11.16;45.54;100924.91;5115504;28;20738;-57
2023/03/17 02:16:56;;;;;;;2.43;2.13;;;8.60;61.20;;;11.18;45.02;100922.94;5116680;28;20191;-54
2023/03/17 02:19:24;;;;;;;2.43;2.17;;;8.50;61.10;;;11.18;45.15;100930.84;5117254;28;20274;-56
2023/03/17 02:21:56;;;;;;;2.43;2.00;;;8.60;61.20;;;11.19;45.13;100924.59;5117037;28;20675;-55
2023/03/17 02:24:34;;;;;;;2.60;2.27;;;8.50;61.30;;;11.17;45.10;100916.03;5116579;28;20269;-57
2023/03/17 02:27:07;;;;;;;3.73;2.70;;;8.60;61.40;;;11.14;45.67;100927.75;5117641;28;20563;-57
2023/03/17 02:29:36;;;;;;;3.20;2.90;;;8.50;61.60;;;11.14;45.54;100937.44;5117538;28;20187;-57
2023/03/17 02:32:04;;;;;;;3.00;2.77;;;8.50;61.60;;;11.12;45.36;100924.47;5116743;28;20190;-55
2023/03/17 02:34:32;;;;;;;3.20;2.57;;;8.50;61.60;;;11.07;45.79;100926.78;5116810;28;20214;-58
2023/03/17 02:37:01;;;;;;;3.43;2.37;;;8.50;61.70;;;11.05;45.91;100928.78;5116851;28;20660;-56
2023/03/17 02:39:27;;;;;;;4.30;2.80;;;8.50;61.60;;;11.03;45.47;100924.69;5116929;28;20196;-56
2023/03/17 02:41:55;;;;;;;2.50;2.13;;;8.50;61.70;;;11.04;45.54;100923.66;5116694;28;20252;-55
2023/03/17 02:44:22;;;;;;;2.90;2.57;;;8.50;61.60;;;11.01;45.73;100908.19;5116044;28;20695;-57
2023/03/17 02:46:48;;;;;;;4.00;2.33;;;8.50;61.70;;;10.99;45.68;100903.13;5116725;28;20183;-55
2023/03/17 02:49:17;;;;;;;4.30;2.70;;;8.50;61.80;;;10.97;45.24;100893.75;5117427;28;20187;-55
2023/03/17 02:51:44;;;;;;;5.80;3.00;;;8.50;61.80;;;10.96;45.75;100890.28;5123387;28;20729;-57
2023/03/17 02:54:13;;;;;;;3.10;2.80;;;8.40;61.70;;;10.92;45.41;100880.28;5116403;28;20649;-55
2023/03/17 02:56:40;;;;;;;4.17;2.37;;;8.40;61.80;;;10.80;45.58;100866.69;5116482;28;20188;-56
2023/03/17 02:59:08;;;;;;;4.43;2.50;;;8.30;61.90;;;10.68;46.15;100847.84;5116337;28;20188;-56
2023/03/17 03:01:35;;;;;;;2.63;2.43;;;8.30;62.00;;;10.60;46.72;100850.50;5129863;27;20611;-58
2023/03/17 03:04:03;;;;;;;3.27;2.40;;;8.30;62.10;;;10.62;46.24;100869.59;5136441;27;20211;-57
2023/03/17 03:06:30;;;;;;;5.43;2.97;;;8.30;62.20;;;10.61;46.12;100878.47;5136883;27;20199;-56
2023/03/17 03:08:58;;;;;;;2.77;2.33;;;8.30;62.40;;;10.68;46.02;100879.41;5120431;27;20207;-55
2023/03/17 03:11:28;;;;;;;3.10;2.40;;;8.20;62.20;;;10.65;46.29;100887.66;5116432;28;20729;-55
2023/03/17 03:13:55;;;;;;;2.87;2.60;;;8.20;62.40;;;10.62;46.00;100902.97;5115729;28;20231;-55
2023/03/17 03:16:22;;;;;;;5.73;3.03;;;8.20;62.40;;;10.65;46.31;100892.91;5114548;28;20200;-57
2023/03/17 03:18:49;;;;;;;3.10;2.50;;;8.20;62.30;;;10.68;46.13;100884.69;5116078;28;20191;-57
2023/03/17 03:21:16;;;;;;;4.10;2.67;;;8.20;62.20;;;10.70;46.32;100882.69;5116188;28;20188;-57
2023/03/17 03:23:43;;;;;;;3.03;2.30;;;8.20;62.20;;;10.64;46.52;100882.56;5115859;28;20207;-56
2023/03/17 03:26:10;;;;;;;3.43;2.50;;;8.20;62.50;;;10.63;46.29;100894.06;5114939;28;20215;-56
2023/03/17 03:28:39;;;;;;;4.20;2.60;;;8.20;62.60;;;10.62;46.35;100895.91;5116369;28;20705;-57
2023/03/17 03:31:06;;;;;;;2.77;2.33;;;8.20;62.50;;;10.63;46.34;100896.72;5116373;28;20233;-58
2023/03/17 03:33:35;;;;;;;4.00;2.50;;;8.10;62.50;;;10.62;46.59;100885.38;5115485;28;20215;-55
2023/03/17 03:36:02;;;;;;;2.77;2.50;;;8.10;62.70;;;10.57;46.53;100882.44;5116009;28;20222;-55
2023/03/17 03:38:29;;;;;;;2.93;2.40;;;8.10;62.80;;;10.56;46.49;100866.81;5115800;28;20206;-57
2023/03/17 03:40:56;;;;;;;3.87;2.67;;;8.10;63.00;;;10.53;46.29;100867.16;5115628;28;20232;-55
2023/03/17 03:43:23;;;;;;;2.50;2.30;;;8.00;63.10;;;10.54;46.34;100860.88;5123673;28;20222;-57
2023/03/17 03:45:53;;;;;;;3.00;2.37;;;8.00;63.00;;;10.49;46.38;100868.47;5115469;28;20225;-56
2023/03/17 03:48:21;;;;;;;4.00;2.40;;;8.00;63.20;;;10.43;46.90;100872.63;5115667;28;20226;-57
2023/03/17 03:50:48;;;;;;;3.10;2.60;;;8.00;63.70;;;10.45;46.71;100872.44;5115770;28;20266;-56
2023/03/17 03:53:15;;;;;;;4.43;2.60;;;8.00;63.50;;;10.47;46.82;100866.03;5115265;27;20203;-57
2023/03/17 03:55:42;;;;;;;3.93;2.97;;;7.90;63.40;;;10.45;47.28;100865.38;5115421;28;20590;-56
2023/03/17 03:58:10;;;;;;;5.23;3.33;;;7.90;63.80;;;10.46;47.15;100872.25;5114977;28;20207;-56
2023/03/17 04:00:37;;;;;;;2.83;2.30;;;7.90;63.90;;;10.46;47.25;100877.53;5119474;27;20191;-55
2023/03/17 04:03:05;;;;;;;2.70;2.50;;;7.90;63.80;;;10.43;46.79;100864.72;5135270;27;20219;-58
2023/03/17 04:05:33;;;;;;;4.77;3.00;;;7.90;64.20;;;10.37;47.09;100864.56;5135659;27;20210;-57
2023/03/17 04:08:00;;;;;;;3.27;2.80;;;7.80;64.30;;;10.34;47.72;100865.72;5127088;27;20672;-56
2023/03/17 04:10:27;;;;;;;3.70;2.90;;;7.80;64.20;;;10.36;47.14;100862.94;5114815;28;20210;-56
2023/03/17 04:12:55;;;;;;;4.40;2.93;;;7.80;64.20;;;10.30;47.62;100853.91;5115112;28;20208;-57
2023/03/17 04:15:22;;;;;;;3.47;2.50;;;7.80;64.60;;;10.25;47.69;100856.22;5114809;28;20188;-58
2023/03/17 04:17:49;;;;;;;3.10;2.80;;;7.80;64.60;;;10.24;47.91;100859.88;5114846;28;20289;-57
2023/03/17 04:20:18;;;;;;;4.63;2.93;;;7.70;64.60;;;10.22;47.90;100861.84;5114961;28;20203;-57
2023/03/17 04:22:45;;;;;;;3.00;2.70;;;7.70;64.80;;;10.20;47.99;100861.16;5114437;28;20183;-58
2023/03/17 04:25:14;;;;;;;3.33;2.83;;;7.70;64.80;;;10.22;47.66;100861.84;5114693;27;20556;-56
2023/03/17 04:27:42;;;;;;;3.20;2.90;;;7.70;64.80;;;10.17;47.73;100856.28;5114255;28;20222;-58
2023/03/17 04:30:15;;;;;;;3.57;2.97;;;7.70;65.00;;;10.13;47.92;100862.84;5114183;28;20199;-55
2023/03/17 04:32:43;;;;;;;3.13;2.83;;;7.60;65.10;;;10.09;48.18;100866.78;5115216;28;20191;-58
2023/03/17 04:35:13;;;;;;;3.93;3.13;;;7.60;65.10;;;10.10;48.08;100857.91;5115184;28;20215;-55
2023/03/17 04:37:42;;;;;;;3.23;2.83;;;7.60;65.00;;;10.11;47.64;100855.13;5114870;28;20194;-55
2023/03/17 04:40:11;;;;;;;2.70;2.50;;;7.60;65.00;;;10.12;47.99;100848.88;5129970;28;20679;-55
2023/03/17 04:42:39;;;;;;;3.40;2.60;;;7.60;65.10;;;10.10;48.25;100842.13;5115447;28;20199;-56
2023/03/17 04:45:10;;;;;;;3.37;2.90;;;7.60;65.30;;;10.07;47.99;100839.81;5114341;28;20203;-58
2023/03/17 04:47:38;;;;;;;3.37;2.70;;;7.60;65.40;;;10.04;48.54;100837.53;5114401;28;20195;-56
2023/03/17 04:50:07;;;;;;;3.33;2.97;;;7.60;65.40;;;10.07;48.36;100837.19;5114394;28;20189;-58
2023/03/17 04:52:35;;;;;;;4.37;3.10;;;7.60;65.50;;;9.99;48.59;100834.56;5114249;28;20640;-58
2023/03/17 04:55:07;;;;;;;3.73;3.13;;;7.50;65.70;;;10.00;48.67;100837.06;5115109;28;20557;-58
2023/03/17 04:57:34;;;;;;;5.73;3.10;;;7.60;65.70;;;10.04;48.56;100837.53;5114673;28;20186;-56
2023/03/17 05:00:01;;;;;;;6.37;3.53;;;7.50;65.60;;;10.06;48.37;100836.38;5115145;28;20184;-54
2023/03/17 05:02:28;;;;;;;7.47;3.60;;;7.50;65.60;;;10.06;47.99;100831.09;5135076;27;20222;-57
2023/03/17 05:04:55;;;;;;;3.37;2.93;;;7.50;65.80;;;10.03;48.45;100825.38;5132173;27;20207;-57
2023/03/17 05:07:22;;;;;;;3.50;3.07;;;7.50;66.10;;;9.96;48.71;100824.41;5117266;27;20191;-57
2023/03/17 05:09:49;;;;;;;3.50;3.20;;;7.50;66.20;;;9.95;48.94;100815.69;5130673;27;20192;-57
2023/03/17 05:12:17;;;;;;;4.57;3.40;;;7.50;66.10;;;9.96;48.94;100819.16;5113798;28;20545;-55
2023/03/17 05:14:44;;;;;;;3.93;2.77;;;7.50;66.20;;;9.96;48.67;100811.28;5114316;28;20221;-56
2023/03/17 05:17:11;;;;;;;5.40;3.60;;;7.50;66.10;;;9.95;48.91;100812.25;5114039;28;20202;-58
2023/03/17 05:19:38;;;;;;;2.93;2.73;;;7.40;66.20;;;9.96;48.34;100817.31;5114221;28;20233;-56
2023/03/17 05:22:06;;;;;;;3.80;3.10;;;7.40;66.20;;;9.97;48.28;100816.34;5113865;28;20183;-58
2023/03/17 05:24:33;;;;;;;3.93;2.90;;;7.40;66.20;;;9.94;48.36;100821.09;5113507;28;20260;-58
2023/03/17 05:27:00;;;;;;;4.13;3.33;;;7.40;66.30;;;9.92;48.87;100821.28;5114198;28;20195;-55
2023/03/17 05:29:28;;;;;;;4.80;3.13;;;7.40;66.30;;;9.92;48.48;100817.84;5114124;28;20547;-55
2023/03/17 05:31:55;;;;;;;4.20;3.03;;;7.40;66.40;;;9.89;49.01;100812.94;5114609;28;20210;-56
2023/03/17 05:34:22;;;;;;;5.50;3.33;;;7.40;66.50;;;9.87;48.55;100820.97;5112587;28;20695;-57
2023/03/17 05:36:49;;;;;;;3.33;3.00;;;7.40;66.40;;;9.89;49.13;100824.25;5114379;28;20245;-55
2023/03/17 05:39:16;;;;;;;3.63;2.93;;;7.40;66.40;;;9.86;48.55;100815.91;5113982;28;20534;-54
2023/03/17 05:41:43;;;;;;;4.30;3.30;;;7.30;66.40;;;9.82;49.25;100822.44;5113658;28;20345;-57
2023/03/17 05:44:10;;;;;;;4.53;3.17;;;7.40;66.50;;;9.85;48.73;100814.25;5113085;28;20685;-56
2023/03/17 05:46:39;;;;;;;4.10;3.47;;;7.40;66.50;;;9.86;48.41;100816.72;5113683;28;20184;-56
2023/03/17 05:49:06;;;;;;;3.90;3.33;;;7.40;66.60;;;9.85;49.18;100819.50;5115142;28;20300;-58
2023/03/17 05:51:33;;;;;;;5.87;3.50;;;7.40;66.70;;;9.91;48.47;100810.97;5117793;28;20184;-56
2023/03/17 05:54:03;;;;;;;5.13;4.03;;;7.40;66.50;;;9.97;48.63;100810.25;5117415;28;20900;-59
2023/03/17 05:56:32;;;;;;;3.87;3.00;;;7.40;66.60;;;10.01;48.15;100822.06;5118398;28;20192;-57
2023/03/17 05:59:00;;;;;;;4.00;3.60;;;7.40;66.50;;;10.01;48.16;100828.16;5117710;28;20294;-57
2023/03/17 06:01:27;;;;;;;3.77;3.07;;;7.40;66.70;;;10.03;48.77;100828.00;5117312;28;20230;-56
2023/03/17 06:03:56;;;;;;;3.93;3.00;;;7.40;66.50;;;10.09;48.25;100822.06;5117370;28;20241;-56
2023/03/17 06:06:23;;;;;;;3.67;3.33;;;7.40;66.40;;;10.15;48.37;100813.50;5118413;28;20230;-58
2023/03/17 06:08:50;;;;;;;4.40;3.33;;;7.50;66.60;;;10.20;48.29;100819.09;5133102;27;20201;-57
2023/03/17 06:11:19;;;;;;;4.33;3.10;;;7.50;66.50;;;10.21;48.07;100823.38;5121924;27;20188;-59
2023/03/17 06:13:47;;;;;;;3.67;3.30;;;7.50;66.60;;;10.24;48.58;100823.03;5117424;28;20247;-57
2023/03/17 06:16:14;;;;;;;5.17;3.77;;;7.50;66.50;;;10.28;48.24;100816.44;5117543;28;20195;-57
2023/03/17 06:18:41;;;;;;;4.27;3.73;;;7.60;66.60;;;10.30;47.71;100817.09;5117532;28;20196;-59
2023/03/17 06:21:10;;;;;;;5.50;3.53;;;7.60;67.20;;;10.31;47.78;100813.47;5117319;28;20199;-58
2023/03/17 06:23:37;;;;;;;4.07;3.37;;;7.60;66.50;;;10.32;47.83;100817.72;5117206;28;20204;-56
2023/03/17 06:26:05;;;;;;;5.13;3.70;;;7.60;66.30;;;10.30;47.89;100817.09;5117339;28;20215;-56
2023/03/17 06:28:32;;;;;;;4.37;3.37;;;7.60;66.20;;;10.29;47.95;100825.97;5117703;28;20195;-57
2023/03/17 06:30:59;;;;;;;3.73;3.33;;;7.70;66.20;;;10.25;47.88;100822.03;5118300;28;20212;-58
2023/03/17 06:33:27;;;;;;;5.83;4.00;;;7.70;66.20;;;10.30;48.28;100830.25;5117041;28;20207;-57
2023/03/17 06:35:53;;;;;;;4.43;3.30;;;7.70;66.10;;;10.32;48.15;100825.63;5117392;28;20563;-56
2023/03/17 06:38:22;;;;;;;4.87;3.57;;;7.70;66.00;;;10.36;48.14;100818.22;5117769;28;20207;-56
2023/03/17 06:40:49;;;;;;;4.40;3.67;;;7.70;66.10;;;10.42;47.80;100826.25;5116889;28;20184;-56
2023/03/17 06:43:18;;;;;;;5.10;3.63;;;7.80;66.10;;;10.47;47.93;100829.19;5116590;27;20211;-59
2023/03/17 06:45:45;;;;;;;6.70;4.00;;;7.80;65.90;;;10.54;47.37;100829.31;5116449;28;20208;-55
2023/03/17 06:48:12;;;;;;;4.77;4.27;;;7.90;66.00;;;10.63;47.45;100834.38;5116633;28;20211;-60
2023/03/17 06:50:39;;;;;;;4.93;3.90;;;7.90;65.80;;;10.75;47.36;100830.34;5116215;28;20198;-56
2023/03/17 06:53:07;;;;;;;6.57;4.23;;;8.00;65.80;;;10.83;46.91;100832.13;5116205;28;20272;-54
2023/03/17 06:55:35;;;;;;;4.70;4.30;;;8.00;65.50;;;10.95;47.22;100827.28;5116501;28;20206;-56
2023/03/17 06:58:02;;;;;;;6.00;4.13;;;8.10;65.40;;;11.06;46.34;100829.50;5117188;28;20203;-57
2023/03/17 07:00:29;;;;;;;5.67;3.70;;;8.20;65.20;;;11.16;46.89;100835.34;5121099;27;20271;-58
2023/03/17 07:02:56;;;;;;;7.17;3.97;;;8.30;65.10;;;11.31;46.83;100830.97;5137340;27;20273;-55
2023/03/17 07:05:23;;;;;;;6.00;4.00;;;8.40;64.90;;;11.56;46.46;100842.94;5137266;27;20231;-56
2023/03/17 07:07:50;;;;;;;3.93;3.50;;;8.60;64.70;;;11.93;45.55;100845.56;5129915;27;20195;-57
2023/03/17 07:10:18;;;;;;;6.23;3.23;;;8.80;64.50;;;12.42;45.31;100839.75;5116055;28;20215;-58
2023/03/17 07:12:46;;;;;;;5.90;4.80;;;9.20;64.30;;;13.00;44.42;100839.63;5116184;28;20192;-55
2023/03/17 07:15:14;;;;;;;4.80;3.80;;;9.60;63.70;;;13.61;42.23;100832.88;5114834;28;20279;-56
2023/03/17 07:17:41;;;;;;;4.37;3.80;;;10.10;59.60;;;14.23;41.55;100822.31;5116651;28;20563;-57
2023/03/17 07:20:10;;;;;;;3.90;3.40;;;10.60;59.00;;;14.70;40.30;100814.38;5116337;28;20203;-55
2023/03/17 07:22:37;;;;;;;5.20;3.90;;;11.10;57.50;;;15.12;39.24;100812.44;5115822;28;20659;-57
2023/03/17 07:25:06;;;;;;;4.30;3.60;;;11.60;56.00;;;15.31;38.06;100820.38;5115782;28;20220;-56
2023/03/17 07:27:33;;;;;;;6.07;4.10;;;11.90;54.10;;;15.33;37.68;100809.59;5115645;28;20187;-57
2023/03/17 07:30:03;;;;;;;7.87;3.73;;;12.20;53.10;;;15.23;37.73;100811.81;5116221;28;20267;-55
2023/03/17 07:32:31;;;;;;;4.27;3.47;;;12.20;52.10;;;15.28;38.00;100812.84;5115742;28;20188;-56
2023/03/17 07:34:58;;;;;;;5.70;3.87;;;12.40;52.80;;;15.24;37.71;100824.88;5116327;28;20270;-57
2023/03/17 07:37:25;;;;;;;4.37;3.80;;;12.40;52.10;;;15.37;37.96;100826.72;5116388;28;20195;-56
2023/03/17 07:39:52;;;;;;;5.90;4.37;;;12.40;52.40;;;15.59;37.56;100817.59;5116446;28;20192;-57
2023/03/17 07:42:19;;;;;;;5.57;3.67;;;12.50;52.50;;;15.70;36.91;100830.22;5115808;28;20192;-58
2023/03/17 07:44:46;;;;;;;4.70;3.70;;;12.50;52.20;;;15.94;37.36;100828.75;5116026;28;20212;-56
2023/03/17 07:47:15;;;;;;;5.17;4.03;;;12.60;52.80;;;16.23;37.16;100834.41;5116522;28;20261;-57
2023/03/17 07:49:42;;;;;;;5.07;3.70;;;12.80;52.50;;;16.64;36.69;100827.97;5116368;28;20187;-58
2023/03/17 07:52:10;;;;;;;5.37;4.40;;;13.00;52.50;;;17.04;35.66;100831.22;5116054;28;20270;-56
2023/03/17 07:54:38;;;;;;;5.33;3.70;;;13.20;52.00;;;17.32;35.15;100828.97;5114438;28;20703;-54
2023/03/17 07:57:09;;;;;;;5.07;3.67;;;13.50;50.50;;;17.35;34.08;100824.00;5103864;28;20180;-55
2023/03/17 07:59:37;;;;;;;4.10;3.70;;;13.80;48.70;;;17.37;34.25;100824.63;5117288;28;20274;-58
2023/03/17 08:02:04;;;;;;;4.70;3.90;;;14.00;48.40;;;17.52;33.82;100825.16;5117585;27;20183;-55
2023/03/17 08:04:33;;;;;;;4.70;4.03;;;14.10;47.40;;;17.79;33.63;100811.59;5120983;28;20208;-56
2023/03/17 08:07:00;;;;;;;6.20;4.23;;;14.30;47.30;;;18.06;32.75;100826.28;5143151;27;20248;-53
2023/03/17 08:09:27;;;;;;;4.03;3.63;;;14.50;46.70;;;18.29;32.66;100818.44;5123055;28;20666;-56
2023/03/17 08:11:55;;;;;;;5.93;4.17;;;14.70;46.20;;;18.60;32.11;100812.13;5123223;28;20192;-55
2023/03/17 08:14:22;;;;;;;4.17;3.87;;;14.90;46.00;;;18.72;31.80;100808.50;5122149;28;20222;-58
2023/03/17 08:16:49;;;;;;;4.57;3.50;;;15.10;45.00;;;18.80;31.62;100815.38;5116459;28;20218;-57
2023/03/17 08:19:16;;;;;;;5.77;4.60;;;15.30;45.00;;;18.92;31.73;100806.34;5119648;28;20190;-59
2023/03/17 08:21:44;;;;;;;5.53;3.70;;;15.40;44.70;;;19.09;31.22;100801.16;5123134;28;20227;-58
2023/03/17 08:24:11;;;;;;;5.40;4.33;;;15.50;44.30;;;19.25;31.32;100800.53;5115840;28;20661;-57
2023/03/17 08:26:38;;;;;;;5.57;4.30;;;15.70;44.10;;;19.26;30.95;100787.97;5115986;28;20214;-57
2023/03/17 08:29:06;;;;;;;5.00;3.90;;;15.80;43.50;;;19.27;31.29;100786.94;5114514;28;20590;-58
2023/03/17 08:31:34;;;;;;;6.57;3.80;;;15.90;43.70;;;19.38;31.09;100788.84;5114993;28;20214;-51
2023/03/17 08:34:01;;;;;;;5.33;4.07;;;16.00;43.40;;;19.61;30.92;100788.88;5114447;28;20212;-50
2023/03/17 08:36:29;;;;;;;4.33;3.77;;;16.10;43.40;;;19.75;30.52;100790.25;5115013;28;20184;-49
2023/03/17 08:38:58;;;;;;;4.67;4.23;;;16.20;42.50;;;19.84;30.59;100782.69;5115123;28;20624;-49
2023/03/17 08:41:27;;;;;;;4.20;3.80;;;16.30;42.30;;;19.92;30.05;100785.81;5114549;28;20275;-50
2023/03/17 08:43:54;;;;;;;5.70;4.07;;;16.40;41.90;;;19.98;29.87;100779.53;5113563;28;20207;-49
2023/03/17 08:46:24;;;;;;;4.60;4.20;;;16.50;41.50;;;20.05;30.13;100774.88;5112823;27;20232;-49
2023/03/17 08:48:55;;;;;;;4.17;3.77;;;16.60;41.40;;;20.44;29.51;100767.13;5111335;27;20667;-50
2023/03/17 08:51:25;;;;;;;4.73;4.33;;;16.80;41.40;;;20.97;28.93;100770.25;5109908;28;20641;-48
2023/03/17 08:53:54;;;;;;;4.90;3.70;;;17.00;40.80;;;21.28;28.73;100774.25;5093682;28;20681;-47
2023/03/17 08:56:22;;;;;;;4.63;4.10;;;17.30;40.20;;;21.64;27.88;100775.59;5093975;28;20192;-49
2023/03/17 08:58:50;;;;;;;4.30;3.93;;;17.60;39.80;;;21.98;27.47;100777.19;5092898;28;20247;-48
2023/03/17 09:01:20;;;;;;;4.87;3.97;;;17.80;39.40;;;22.58;27.46;100769.84;5111785;27;20191;-49
2023/03/17 09:03:48;;;;;;;4.90;4.00;;;18.20;39.40;;;22.96;26.44;100786.91;5114202;28;20276;-48
2023/03/17 09:06:15;;;;;;;4.30;3.90;;;18.50;38.50;;;22.92;26.26;100784.72;5116045;28;20220;-48
2023/03/17 09:08:43;;;;;;;4.33;3.63;;;18.70;38.00;;;22.72;26.72;100779.19;5130090;28;20199;-57
2023/03/17 09:11:15;;;;;;;6.83;3.83;;;18.90;37.30;;;22.42;26.83;100786.03;5117971;28;20196;-58
2023/03/17 09:13:45;;;;;;;5.30;3.90;;;18.90;37.30;;;22.12;27.43;100794.53;5114135;28;20265;-57
2023/03/17 09:16:13;;;;;;;4.23;3.83;;;18.90;37.80;;;21.72;27.83;100785.91;5113007;28;20264;-55
2023/03/17 09:18:41;;;;;;;4.83;4.30;;;18.60;38.00;;;21.29;28.36;100783.94;5114002;28;20304;-58
2023/03/17 09:21:10;;;;;;;4.33;4.00;;;18.40;38.00;;;20.80;28.56;100793.50;5113699;28;20203;-60
2023/03/17 09:23:37;;;;;;;5.27;4.30;;;18.00;38.30;;;20.35;29.35;100785.41;5114271;28;20211;-57
2023/03/17 09:26:05;;;;;;;4.57;4.17;;;17.70;39.10;;;20.03;30.27;100776.97;5118002;28;20326;-57
2023/03/17 09:28:32;;;;;;;4.40;4.00;;;17.30;39.80;;;19.78;30.53;100779.09;5118638;28;20191;-55
2023/03/17 09:31:04;;;;;;;6.17;4.40;;;17.00;40.50;;;20.26;30.15;100770.78;5117007;28;20225;-58
2023/03/17 09:33:32;;;;;;;5.33;4.17;;;17.00;41.60;;;21.22;29.64;100772.56;5117246;28;20588;-58
2023/03/17 09:35:58;;;;;;;4.43;3.90;;;17.10;42.00;;;22.13;28.22;100769.38;5117260;28;20640;-58
2023/03/17 09:38:26;;;;;;;4.03;3.40;;;17.50;41.70;;;23.12;27.78;100769.88;5117141;27;20219;-56
2023/03/17 09:41:08;;;;;;;4.40;3.90;;;18.00;42.00;;;24.12;26.66;100773.25;5131176;27;20349;-56
2023/03/17 09:43:51;;;;;;;4.77;4.23;;;18.70;40.70;;;25.07;25.16;100771.88;5119885;27;20223;-56
2023/03/17 09:46:36;;;;;;;4.43;4.03;;;19.40;39.40;;;25.95;24.99;100773.13;5130117;27;20710;-59
2023/03/17 09:49:08;;;;;;;4.40;4.03;;;20.20;39.30;;;26.74;23.82;100767.59;5130052;27;20195;-56
2023/03/17 09:51:35;;;;;;;4.30;3.73;;;20.90;36.90;;;27.32;23.03;100771.22;5119953;27;20242;-57
2023/03/17 09:54:10;;;;;;;4.97;4.27;;;21.60;36.80;;;27.87;22.61;100778.00;5125367;27;20203;-53
2023/03/17 09:56:44;;;;;;;15.87;14.27;;;22.20;35.90;;;28.42;22.17;100775.72;5116841;27;20188;-55
2023/03/17 09:59:33;;;;;;;11.20;9.93;;;22.80;34.90;;;28.78;21.48;100777.66;5106765;27;20195;-58
2023/03/17 10:02:01;;;;;;;29.60;24.17;;;23.20;33.30;;;29.08;21.39;100776.38;5110847;27;20194;-58
2023/03/17 10:04:29;;;;;;;10.40;8.87;;;23.70;33.50;;;29.35;20.98;100771.06;5104650;28;20216;-57
2023/03/17 10:07:03;;;;;;;15.00;13.60;;;24.00;32.70;;;30.05;20.61;100771.63;5108352;27;20322;-55
2023/03/17 10:09:39;;;;;;;4.60;4.20;;;24.30;33.00;;;30.89;19.18;100771.19;5100222;28;20187;-55
2023/03/17 10:12:17;;;;;;;5.20;4.67;;;24.80;31.60;;;31.30;19.72;100769.88;5115052;28;20652;-54
2023/03/17 10:14:57;;;;;;;4.07;3.67;;;25.20;30.40;;;31.91;19.05;100768.22;5111690;27;20218;-57
2023/03/17 10:17:30;;;;;;;3.83;3.43;;;25.70;31.20;;;32.21;18.93;100761.13;5109468;28;20202;-58
2023/03/17 10:20:05;;;;;;;4.10;3.70;;;26.10;29.80;;;31.93;16.66;100758.63;5128137;28;20205;-57
2023/03/17 10:22:40;;;;;;;4.10;3.67;;;26.30;27.10;;;31.53;18.09;100759.75;5113631;28;20237;-57
2023/03/17 10:25:14;;;;;;;4.10;3.70;;;26.40;27.20;;;30.96;17.03;100766.91;5124529;27;20242;-57